sensor_id;sensor_type;location;lat;lon;timestamp;pressure;altitude;pressure_sealevel;temperature;humidity
23339;BME280;11841;49.368;20.962;2023-07-13T00:02:07;95560.69;;;19.55;97.26
23339;BME280;11841;49.368;20.962;2023-07-13T00:04:53;95559.06;;;19.54;96.97
23339;BME280;11841;49.368;20.962;2023-07-13T00:07:39;95566.09;;;19.50;97.24
23339;BME280;11841;49.368;20.962;2023-07-13T00:10:24;95570.94;;;19.48;96.90
23339;BME280;11841;49.368;20.962;2023-07-13T00:13:11;95568.53;;;19.46;96.30
23339;BME280;11841;49.368;20.962;2023-07-13T00:15:58;95568.78;;;19.45;95.69
23339;BME280;11841;49.368;20.962;2023-07-13T00:18:43;95577.41;;;19.42;94.76
23339;BME280;11841;49.368;20.962;2023-07-13T00:21:29;95587.09;;;19.38;94.60
23339;BME280;11841;49.368;20.962;2023-07-13T00:24:16;95589.81;;;19.33;94.70
23339;BME280;11841;49.368;20.962;2023-07-13T00:27:08;95587.38;;;19.31;95.26
23339;BME280;11841;49.368;20.962;2023-07-13T00:29:54;95586.63;;;18.90;97.21
23339;BME280;11841;49.368;20.962;2023-07-13T00:32:39;95590.69;;;18.83;97.88
23339;BME280;11841;49.368;20.962;2023-07-13T00:35:25;95585.59;;;18.76;98.27
23339;BME280;11841;49.368;20.962;2023-07-13T00:38:10;95587.22;;;18.72;99.00
23339;BME280;11841;49.368;20.962;2023-07-13T00:40:56;95590.97;;;18.71;100.00
23339;BME280;11841;49.368;20.962;2023-07-13T00:43:42;95581.03;;;18.62;100.00
23339;BME280;11841;49.368;20.962;2023-07-13T00:46:29;95590.16;;;18.66;100.00
23339;BME280;11841;49.368;20.962;2023-07-13T00:49:19;95592.56;;;18.72;100.00
23339;BME280;11841;49.368;20.962;2023-07-13T00:52:07;95578.59;;;18.75;100.00
23339;BME280;11841;49.368;20.962;2023-07-13T00:54:54;95581.56;;;18.74;100.00
23339;BME280;11841;49.368;20.962;2023-07-13T00:57:40;95568.94;;;18.74;100.00
23339;BME280;11841;49.368;20.962;2023-07-13T01:00:27;95564.66;;;18.73;100.00
23339;BME280;11841;49.368;20.962;2023-07-13T01:03:15;95561.97;;;18.73;100.00
23339;BME280;11841;49.368;20.962;2023-07-13T01:06:00;95559.28;;;18.63;100.00
23339;BME280;11841;49.368;20.962;2023-07-13T01:08:46;95559.28;;;18.58;100.00
23339;BME280;11841;49.368;20.962;2023-07-13T01:11:31;95550.97;;;18.60;100.00
23339;BME280;11841;49.368;20.962;2023-07-13T01:14:17;95557.94;;;18.66;100.00
23339;BME280;11841;49.368;20.962;2023-07-13T01:17:03;95546.66;;;18.69;100.00
23339;BME280;11841;49.368;20.962;2023-07-13T01:19:48;95546.94;;;18.72;100.00
23339;BME280;11841;49.368;20.962;2023-07-13T01:22:34;95547.47;;;18.74;100.00
23339;BME280;11841;49.368;20.962;2023-07-13T01:25:20;95547.19;;;18.76;100.00
23339;BME280;11841;49.368;20.962;2023-07-13T01:28:07;95541.28;;;18.79;100.00
23339;BME280;11841;49.368;20.962;2023-07-13T01:30:55;95534.31;;;18.68;100.00
23339;BME280;11841;49.368;20.962;2023-07-13T01:33:41;95543.69;;;18.70;100.00
23339;BME280;11841;49.368;20.962;2023-07-13T01:36:27;95556.06;;;18.71;100.00
23339;BME280;11841;49.368;20.962;2023-07-13T01:39:12;95557.94;;;18.76;100.00
23339;BME280;11841;49.368;20.962;2023-07-13T01:41:57;95550.16;;;18.74;100.00
23339;BME280;11841;49.368;20.962;2023-07-13T01:44:43;95556.31;;;18.80;100.00
23339;BME280;11841;49.368;20.962;2023-07-13T01:47:28;95556.84;;;18.82;100.00
23339;BME280;11841;49.368;20.962;2023-07-13T01:50:16;95565.97;;;18.86;100.00
23339;BME280;11841;49.368;20.962;2023-07-13T01:53:01;95554.94;;;18.87;100.00
23339;BME280;11841;49.368;20.962;2023-07-13T01:55:47;95545.16;;;19.26;100.00
23339;BME280;11841;49.368;20.962;2023-07-13T01:58:32;95543.84;;;19.24;100.00
23339;BME280;11841;49.368;20.962;2023-07-13T02:01:18;95541.69;;;19.21;100.00
23339;BME280;11841;49.368;20.962;2023-07-13T02:04:03;95547.84;;;19.26;100.00
23339;BME280;11841;49.368;20.962;2023-07-13T02:06:49;95556.47;;;19.28;100.00
23339;BME280;11841;49.368;20.962;2023-07-13T02:09:34;95545.97;;;19.27;100.00
23339;BME280;11841;49.368;20.962;2023-07-13T02:12:19;95544.09;;;19.27;100.00
23339;BME280;11841;49.368;20.962;2023-07-13T02:15:05;95536.03;;;19.27;100.00
23339;BME280;11841;49.368;20.962;2023-07-13T02:17:51;95543.59;;;19.31;100.00
23339;BME280;11841;49.368;20.962;2023-07-13T02:20:36;95541.16;;;19.34;100.00
23339;BME280;11841;49.368;20.962;2023-07-13T02:23:21;95546.25;;;19.25;100.00
23339;BME280;11841;49.368;20.962;2023-07-13T02:26:07;95552.41;;;19.26;100.00
23339;BME280;11841;49.368;20.962;2023-07-13T02:28:53;95541.16;;;19.29;100.00
23339;BME280;11841;49.368;20.962;2023-07-13T02:31:38;95552.19;;;19.33;100.00
23339;BME280;11841;49.368;20.962;2023-07-13T02:34:24;95543.56;;;19.36;100.00
23339;BME280;11841;49.368;20.962;2023-07-13T02:37:09;95560.22;;;19.27;100.00
23339;BME280;11841;49.368;20.962;2023-07-13T02:39:54;95565.63;;;19.27;100.00
23339;BME280;11841;49.368;20.962;2023-07-13T02:42:40;95561.31;;;19.32;100.00
23339;BME280;11841;49.368;20.962;2023-07-13T02:45:26;95567.75;;;19.36;100.00
23339;BME280;11841;49.368;20.962;2023-07-13T02:48:13;95570.97;;;19.38;100.00
23339;BME280;11841;49.368;20.962;2023-07-13T02:50:59;95577.41;;;19.37;100.00
23339;BME280;11841;49.368;20.962;2023-07-13T02:53:44;95574.16;;;19.40;100.00
23339;BME280;11841;49.368;20.962;2023-07-13T02:56:31;95574.16;;;19.40;100.00
23339;BME280;11841;49.368;20.962;2023-07-13T02:59:16;95567.75;;;19.41;100.00
23339;BME280;11841;49.368;20.962;2023-07-13T03:02:02;95562.91;;;19.43;100.00
23339;BME280;11841;49.368;20.962;2023-07-13T03:04:48;95563.69;;;19.43;100.00
23339;BME280;11841;49.368;20.962;2023-07-13T03:07:33;95565.31;;;19.44;100.00
23339;BME280;11841;49.368;20.962;2023-07-13T03:10:18;95576.59;;;19.46;100.00
23339;BME280;11841;49.368;20.962;2023-07-13T03:13:04;95600.00;;;19.36;100.00
23339;BME280;11841;49.368;20.962;2023-07-13T03:15:49;95597.34;;;19.20;100.00
23339;BME280;11841;49.368;20.962;2023-07-13T03:18:35;95589.28;;;19.15;100.00
23339;BME280;11841;49.368;20.962;2023-07-13T03:21:40;95579.63;;;19.09;100.00
23339;BME280;11841;49.368;20.962;2023-07-13T03:24:25;95576.63;;;19.16;100.00
23339;BME280;11841;49.368;20.962;2023-07-13T03:27:11;95585.22;;;19.23;100.00
23339;BME280;11841;49.368;20.962;2023-07-13T03:29:57;95590.88;;;19.26;100.00
23339;BME280;11841;49.368;20.962;2023-07-13T03:32:42;95596.81;;;19.13;100.00
23339;BME280;11841;49.368;20.962;2023-07-13T03:35:27;95594.16;;;19.03;100.00
23339;BME280;11841;49.368;20.962;2023-07-13T03:38:13;95589.31;;;19.10;100.00
23339;BME280;11841;49.368;20.962;2023-07-13T03:40:58;95589.28;;;19.15;100.00
23339;BME280;11841;49.368;20.962;2023-07-13T03:43:44;95596.81;;;19.18;100.00
23339;BME280;11841;49.368;20.962;2023-07-13T03:46:30;95588.72;;;19.23;100.00
23339;BME280;11841;49.368;20.962;2023-07-13T03:49:15;95593.28;;;19.23;100.00
23339;BME280;11841;49.368;20.962;2023-07-13T03:52:01;95598.94;;;19.21;100.00
23339;BME280;11841;49.368;20.962;2023-07-13T03:54:46;95591.69;;;19.27;100.00
23339;BME280;11841;49.368;20.962;2023-07-13T03:57:32;95578.78;;;19.34;100.00
23339;BME280;11841;49.368;20.962;2023-07-13T04:00:18;95588.16;;;19.37;100.00
23339;BME280;11841;49.368;20.962;2023-07-13T04:03:03;95593.53;;;19.37;100.00
23339;BME280;11841;49.368;20.962;2023-07-13T04:05:48;95593.53;;;19.42;100.00
23339;BME280;11841;49.368;20.962;2023-07-13T04:08:36;95593.50;;;19.47;100.00
23339;BME280;11841;49.368;20.962;2023-07-13T04:11:24;95593.50;;;19.52;100.00
23339;BME280;11841;49.368;20.962;2023-07-13T04:14:10;95609.63;;;19.52;100.00
23339;BME280;11841;49.368;20.962;2023-07-13T04:16:55;95619.84;;;19.55;100.00
23339;BME280;11841;49.368;20.962;2023-07-13T04:19:41;95629.25;;;19.57;100.00
23339;BME280;11841;49.368;20.962;2023-07-13T04:22:26;95622.53;;;19.60;100.00
23339;BME280;11841;49.368;20.962;2023-07-13T04:25:11;95629.75;;;19.64;100.00
23339;BME280;11841;49.368;20.962;2023-07-13T04:27:57;95634.03;;;19.65;100.00
23339;BME280;11841;49.368;20.962;2023-07-13T04:30:42;95633.25;;;19.65;100.00
23339;BME280;11841;49.368;20.962;2023-07-13T04:33:27;95646.16;;;19.63;100.00
23339;BME280;11841;49.368;20.962;2023-07-13T04:36:14;95646.72;;;19.65;100.00
23339;BME280;11841;49.368;20.962;2023-07-13T04:39:00;95639.16;;;19.67;100.00
23339;BME280;11841;49.368;20.962;2023-07-13T04:41:45;95633.25;;;19.65;100.00
23339;BME280;11841;49.368;20.962;2023-07-13T04:44:30;95631.06;;;19.67;100.00
23339;BME280;11841;49.368;20.962;2023-07-13T04:47:16;95627.84;;;19.70;100.00
23339;BME280;11841;49.368;20.962;2023-07-13T04:50:02;95623.53;;;19.74;100.00
23339;BME280;11841;49.368;20.962;2023-07-13T04:52:47;95619.78;;;19.75;100.00
23339;BME280;11841;49.368;20.962;2023-07-13T04:55:32;95617.84;;;19.75;100.00
23339;BME280;11841;49.368;20.962;2023-07-13T04:58:18;95603.63;;;19.75;100.00
23339;BME280;11841;49.368;20.962;2023-07-13T05:01:05;95583.72;;;19.76;100.00
23339;BME280;11841;49.368;20.962;2023-07-13T05:03:51;95573.50;;;19.73;100.00
23339;BME280;11841;49.368;20.962;2023-07-13T05:06:37;95552.03;;;19.63;100.00
23339;BME280;11841;49.368;20.962;2023-07-13T05:09:22;95545.59;;;19.59;100.00
23339;BME280;11841;49.368;20.962;2023-07-13T05:12:08;95550.66;;;19.65;100.00
23339;BME280;11841;49.368;20.962;2023-07-13T05:14:55;95536.66;;;19.73;100.00
23339;BME280;11841;49.368;20.962;2023-07-13T05:17:41;95524.53;;;19.76;100.00
23339;BME280;11841;49.368;20.962;2023-07-13T05:20:26;95518.13;;;19.72;100.00
23339;BME280;11841;49.368;20.962;2023-07-13T05:23:11;95513.28;;;19.64;100.00
23339;BME280;11841;49.368;20.962;2023-07-13T05:25:57;95507.34;;;19.67;100.00
23339;BME280;11841;49.368;20.962;2023-07-13T05:28:42;95503.03;;;19.71;100.00
23339;BME280;11841;49.368;20.962;2023-07-13T05:31:28;95515.41;;;19.77;100.00
23339;BME280;11841;49.368;20.962;2023-07-13T05:34:13;95536.88;;;19.82;100.00
23339;BME280;11841;49.368;20.962;2023-07-13T05:36:58;95541.19;;;19.78;100.00
23339;BME280;11841;49.368;20.962;2023-07-13T05:39:43;95539.59;;;19.77;100.00
23339;BME280;11841;49.368;20.962;2023-07-13T05:42:29;95535.78;;;19.83;100.00
23339;BME280;11841;49.368;20.962;2023-07-13T05:45:16;95549.75;;;19.90;100.00
23339;BME280;11841;49.368;20.962;2023-07-13T05:48:01;95555.63;;;19.97;100.00
23339;BME280;11841;49.368;20.962;2023-07-13T05:50:47;95559.34;;;20.01;100.00
23339;BME280;11841;49.368;20.962;2023-07-13T05:53:34;95548.53;;;20.06;100.00
23339;BME280;11841;49.368;20.962;2023-07-13T05:56:20;95549.06;;;20.08;100.00
23339;BME280;11841;49.368;20.962;2023-07-13T05:59:05;95543.13;;;20.11;100.00
23339;BME280;11841;49.368;20.962;2023-07-13T06:01:51;95544.75;;;20.12;100.00
23339;BME280;11841;49.368;20.962;2023-07-13T06:04:37;95547.97;;;20.14;100.00
23339;BME280;11841;49.368;20.962;2023-07-13T06:07:23;95542.59;;;20.14;100.00
23339;BME280;11841;49.368;20.962;2023-07-13T06:10:09;95546.34;;;20.13;100.00
23339;BME280;11841;49.368;20.962;2023-07-13T06:12:54;95537.19;;;20.14;100.00
23339;BME280;11841;49.368;20.962;2023-07-13T06:15:40;95550.13;;;20.17;100.00
23339;BME280;11841;49.368;20.962;2023-07-13T06:18:25;95541.47;;;20.20;100.00
23339;BME280;11841;49.368;20.962;2023-07-13T06:21:16;95538.28;;;20.13;100.00
23339;BME280;11841;49.368;20.962;2023-07-13T06:24:03;95536.97;;;20.10;100.00
23339;BME280;11841;49.368;20.962;2023-07-13T06:26:48;95547.97;;;20.14;100.00
23339;BME280;11841;49.368;20.962;2023-07-13T06:29:33;95539.34;;;20.17;100.00
23339;BME280;11841;49.368;20.962;2023-07-13T06:32:19;95541.97;;;20.27;100.00
23339;BME280;11841;49.368;20.962;2023-07-13T06:35:04;95548.09;;;20.37;100.00
23339;BME280;11841;49.368;20.962;2023-07-13T06:37:50;95552.00;;;20.50;100.00
23339;BME280;11841;49.368;20.962;2023-07-13T06:40:36;95547.09;;;20.57;100.00
23339;BME280;11841;49.368;20.962;2023-07-13T06:43:21;95540.03;;;20.66;100.00
23339;BME280;11841;49.368;20.962;2023-07-13T06:46:06;95540.22;;;20.75;100.00
23339;BME280;11841;49.368;20.962;2023-07-13T06:48:52;95557.09;;;20.85;100.00
23339;BME280;11841;49.368;20.962;2023-07-13T06:51:37;95552.16;;;20.92;100.00
23339;BME280;11841;49.368;20.962;2023-07-13T06:54:22;95565.06;;;21.00;100.00
23339;BME280;11841;49.368;20.962;2023-07-13T06:57:08;95568.78;;;21.04;100.00
23339;BME280;11841;49.368;20.962;2023-07-13T06:59:53;95560.69;;;21.04;100.00
23339;BME280;11841;49.368;20.962;2023-07-13T07:02:39;95554.22;;;21.05;100.00
23339;BME280;11841;49.368;20.962;2023-07-13T07:05:24;95558.69;;;21.15;100.00
23339;BME280;11841;49.368;20.962;2023-07-13T07:08:09;95563.19;;;21.24;100.00
23339;BME280;11841;49.368;20.962;2023-07-13T07:10:54;95540.41;;;21.35;100.00
23339;BME280;11841;49.368;20.962;2023-07-13T07:13:40;95531.13;;;21.41;100.00
23339;BME280;11841;49.368;20.962;2023-07-13T07:16:25;95538.44;;;21.41;100.00
23339;BME280;11841;49.368;20.962;2023-07-13T07:19:11;95532.81;;;21.37;100.00
23339;BME280;11841;49.368;20.962;2023-07-13T07:21:56;95515.91;;;21.32;100.00
23339;BME280;11841;49.368;20.962;2023-07-13T07:24:42;95529.09;;;21.33;100.00
23339;BME280;11841;49.368;20.962;2023-07-13T07:27:27;95514.81;;;21.33;100.00
23339;BME280;11841;49.368;20.962;2023-07-13T07:30:15;95510.22;;;21.33;100.00
23339;BME280;11841;49.368;20.962;2023-07-13T07:33:04;95505.78;;;21.42;100.00
23339;BME280;11841;49.368;20.962;2023-07-13T07:35:50;95503.63;;;21.44;100.00
23339;BME280;11841;49.368;20.962;2023-07-13T07:38:39;95509.78;;;21.45;100.00
23339;BME280;11841;49.368;20.962;2023-07-13T07:41:24;95498.94;;;21.50;100.00
23339;BME280;11841;49.368;20.962;2023-07-13T07:44:12;95498.69;;;21.51;100.00
23339;BME280;11841;49.368;20.962;2023-07-13T07:46:58;95503.47;;;21.54;100.00
23339;BME280;11841;49.368;20.962;2023-07-13T07:49:44;95504.06;;;21.51;100.00
23339;BME280;11841;49.368;20.962;2023-07-13T07:52:29;95499.00;;;21.45;100.00
23339;BME280;11841;49.368;20.962;2023-07-13T07:55:15;95497.78;;;21.37;100.00
23339;BME280;11841;49.368;20.962;2023-07-13T07:58:04;95493.56;;;21.26;100.00
23339;BME280;11841;49.368;20.962;2023-07-13T08:01:10;95499.03;;;21.21;100.00
23339;BME280;11841;49.368;20.962;2023-07-13T08:03:58;95496.28;;;21.26;100.00
23339;BME280;11841;49.368;20.962;2023-07-13T08:06:47;95500.53;;;21.32;100.00
23339;BME280;11841;49.368;20.962;2023-07-13T08:09:32;95504.38;;;21.26;100.00
23339;BME280;11841;49.368;20.962;2023-07-13T08:12:17;95493.63;;;21.21;100.00
23339;BME280;11841;49.368;20.962;2023-07-13T08:15:23;95490.72;;;21.18;100.00
23339;BME280;11841;49.368;20.962;2023-07-13T08:18:08;95492.16;;;21.10;100.00
23339;BME280;11841;49.368;20.962;2023-07-13T08:20:54;95498.16;;;21.07;100.00
23339;BME280;11841;49.368;20.962;2023-07-13T08:23:43;95492.47;;;21.09;100.00
23339;BME280;11841;49.368;20.962;2023-07-13T08:26:29;95498.94;;;21.08;100.00
23339;BME280;11841;49.368;20.962;2023-07-13T08:29:14;95491.59;;;21.13;100.00
23339;BME280;11841;49.368;20.962;2023-07-13T08:31:59;95494.44;;;21.22;100.00
23339;BME280;11841;49.368;20.962;2023-07-13T08:34:45;95485.25;;;21.23;100.00
23339;BME280;11841;49.368;20.962;2023-07-13T08:37:30;95492.03;;;21.20;100.00
23339;BME280;11841;49.368;20.962;2023-07-13T08:40:17;95495.03;;;21.19;100.00
23339;BME280;11841;49.368;20.962;2023-07-13T08:43:10;95498.53;;;21.19;100.00
23339;BME280;11841;49.368;20.962;2023-07-13T08:46:05;95499.03;;;21.21;100.00
23339;BME280;11841;49.368;20.962;2023-07-13T08:48:56;95493.63;;;21.21;100.00
23339;BME280;11841;49.368;20.962;2023-07-13T08:51:53;95490.88;;;21.26;100.00
23339;BME280;11841;49.368;20.962;2023-07-13T08:54:47;95494.38;;;21.27;100.00
23339;BME280;11841;49.368;20.962;2023-07-13T08:57:34;95489.81;;;21.27;100.00
23339;BME280;11841;49.368;20.962;2023-07-13T09:00:31;95484.41;;;21.27;100.00
23339;BME280;11841;49.368;20.962;2023-07-13T09:03:24;95475.28;;;21.23;100.00
23339;BME280;11841;49.368;20.962;2023-07-13T09:06:12;95482.31;;;21.24;100.00
23339;BME280;11841;49.368;20.962;2023-07-13T09:09:02;95480.63;;;21.28;100.00
23339;BME280;11841;49.368;20.962;2023-07-13T09:12:07;95482.16;;;21.34;100.00
23339;BME280;11841;49.368;20.962;2023-07-13T09:14:57;95477.19;;;21.41;100.00
23339;BME280;11841;49.368;20.962;2023-07-13T09:17:52;95479.63;;;21.43;100.00
23339;BME280;11841;49.368;20.962;2023-07-13T09:20:46;95477.25;;;21.36;100.00
23339;BME280;11841;49.368;20.962;2023-07-13T09:23:34;95478.59;;;21.39;100.00
23339;BME280;11841;49.368;20.962;2023-07-13T09:26:22;95479.28;;;21.49;100.00
23339;BME280;11841;49.368;20.962;2023-07-13T09:29:16;95488.31;;;21.58;100.00
23339;BME280;11841;49.368;20.962;2023-07-13T09:32:09;95485.28;;;21.65;100.00
23339;BME280;11841;49.368;20.962;2023-07-13T09:34:56;95477.97;;;21.66;100.00
23339;BME280;11841;49.368;20.962;2023-07-13T09:37:43;95479.56;;;21.67;100.00
23339;BME280;11841;49.368;20.962;2023-07-13T09:40:59;95481.09;;;21.73;100.00
23339;BME280;11841;49.368;20.962;2023-07-13T09:44:10;95490.59;;;21.70;100.00
23339;BME280;11841;49.368;20.962;2023-07-13T09:46:57;95483.34;;;21.66;100.00
23339;BME280;11841;49.368;20.962;2023-07-13T09:49:43;95483.13;;;21.62;100.00
23339;BME280;11841;49.368;20.962;2023-07-13T09:52:45;95487.66;;;21.67;100.00
23339;BME280;11841;49.368;20.962;2023-07-13T09:55:34;95475.66;;;21.78;100.00
23339;BME280;11841;49.368;20.962;2023-07-13T09:58:22;95472.88;;;21.83;100.00
23339;BME280;11841;49.368;20.962;2023-07-13T10:01:09;95467.72;;;21.86;100.00
23339;BME280;11841;49.368;20.962;2023-07-13T10:03:54;95467.47;;;21.83;100.00
23339;BME280;11841;49.368;20.962;2023-07-13T10:06:40;95474.91;;;21.91;100.00
23339;BME280;11841;49.368;20.962;2023-07-13T10:09:28;95466.25;;;21.94;100.00
23339;BME280;11841;49.368;20.962;2023-07-13T10:12:14;95469.50;;;21.91;100.00
23339;BME280;11841;49.368;20.962;2023-07-13T10:15:00;95466.78;;;21.96;100.00
23339;BME280;11841;49.368;20.962;2023-07-13T10:18:08;95460.41;;;22.05;100.00
23339;BME280;11841;49.368;20.962;2023-07-13T10:21:10;95471.41;;;22.09;100.00
23339;BME280;11841;49.368;20.962;2023-07-13T10:24:25;95468.94;;;22.12;100.00
23339;BME280;11841;49.368;20.962;2023-07-13T10:27:18;95476.94;;;22.17;100.00
23339;BME280;11841;49.368;20.962;2023-07-13T10:30:20;95471.03;;;22.15;100.00
23339;BME280;11841;49.368;20.962;2023-07-13T10:33:11;95473.22;;;22.13;100.00
23339;BME280;11841;49.368;20.962;2023-07-13T10:36:17;95464.03;;;22.14;100.00
23339;BME280;11841;49.368;20.962;2023-07-13T10:39:06;95472.22;;;22.09;100.00
23339;BME280;11841;49.368;20.962;2023-07-13T10:42:15;95471.56;;;21.99;100.00
23339;BME280;11841;49.368;20.962;2023-07-13T10:45:23;95483.97;;;22.00;100.00
23339;BME280;11841;49.368;20.962;2023-07-13T10:48:12;95477.41;;;22.06;100.00
23339;BME280;11841;49.368;20.962;2023-07-13T10:51:01;95469.31;;;22.06;100.00
23339;BME280;11841;49.368;20.962;2023-07-13T10:54:15;95470.81;;;22.12;100.00
23339;BME280;11841;49.368;20.962;2023-07-13T11:02:57;95461.22;;;22.06;100.00
23339;BME280;11841;49.368;20.962;2023-07-13T11:05:49;95461.44;;;22.09;100.00
23339;BME280;11841;49.368;20.962;2023-07-13T11:08:52;95466.00;;;22.09;100.00
23339;BME280;11841;49.368;20.962;2023-07-13T11:11:38;95471.56;;;21.99;100.00
23339;BME280;11841;49.368;20.962;2023-07-13T11:23:17;95476.25;;;21.93;100.00
23339;BME280;11841;49.368;20.962;2023-07-13T11:26:03;95482.16;;;21.95;100.00
23339;BME280;11841;49.368;20.962;2023-07-13T11:28:50;95480.91;;;21.88;100.00
23339;BME280;11841;49.368;20.962;2023-07-13T11:31:35;95483.22;;;21.76;100.00
23339;BME280;11841;49.368;20.962;2023-07-13T11:34:32;95501.09;;;21.72;100.00
23339;BME280;11841;49.368;20.962;2023-07-13T11:37:19;95506.25;;;21.68;100.00
23339;BME280;11841;49.368;20.962;2023-07-13T11:40:13;95495.19;;;21.70;100.00
23339;BME280;11841;49.368;20.962;2023-07-13T11:43:00;95502.31;;;21.60;100.00
23339;BME280;11841;49.368;20.962;2023-07-13T11:45:47;95496.63;;;21.62;100.00
23339;BME280;11841;49.368;20.962;2023-07-13T11:48:33;95494.16;;;21.66;100.00
23339;BME280;11841;49.368;20.962;2023-07-13T11:51:29;95500.50;;;21.75;100.00
23339;BME280;11841;49.368;20.962;2023-07-13T11:54:27;95498.41;;;21.72;100.00
23339;BME280;11841;49.368;20.962;2023-07-13T12:00:20;95495.34;;;21.78;100.00
23339;BME280;11841;49.368;20.962;2023-07-13T12:03:06;95501.19;;;21.85;100.00
23339;BME280;11841;49.368;20.962;2023-07-13T12:06:03;95496.09;;;21.84;100.00
23339;BME280;11841;49.368;20.962;2023-07-13T12:08:51;95500.91;;;21.87;100.00
23339;BME280;11841;49.368;20.962;2023-07-13T12:11:37;95501.34;;;21.94;100.00
23339;BME280;11841;49.368;20.962;2023-07-13T12:14:26;95503.16;;;21.98;100.00
23339;BME280;11841;49.368;20.962;2023-07-13T12:17:23;95509.59;;;22.02;100.00
23339;BME280;11841;49.368;20.962;2023-07-13T12:20:36;95523.31;;;22.06;100.00
23339;BME280;11841;49.368;20.962;2023-07-13T12:23:31;95521.59;;;22.10;100.00
23339;BME280;11841;49.368;20.962;2023-07-13T12:26:18;95523.22;;;22.11;100.00
23339;BME280;11841;49.368;20.962;2023-07-13T12:29:05;95510.50;;;22.11;100.00
23339;BME280;11841;49.368;20.962;2023-07-13T12:31:51;95511.25;;;22.17;100.00
23339;BME280;11841;49.368;20.962;2023-07-13T12:34:54;95507.72;;;22.16;100.00
23339;BME280;11841;49.368;20.962;2023-07-13T12:37:45;95508.25;;;22.18;100.00
23339;BME280;11841;49.368;20.962;2023-07-13T12:40:34;95511.16;;;22.22;100.00
23339;BME280;11841;49.368;20.962;2023-07-13T12:43:22;95511.38;;;22.25;100.00
23339;BME280;11841;49.368;20.962;2023-07-13T12:49:06;95531.91;;;22.40;100.00
23339;BME280;11841;49.368;20.962;2023-07-13T12:52:10;95529.59;;;22.33;100.00
23339;BME280;11841;49.368;20.962;2023-07-13T12:55:06;95533.72;;;22.31;100.00
23339;BME280;11841;49.368;20.962;2023-07-13T12:58:03;95551.50;;;22.32;100.00
23339;BME280;11841;49.368;20.962;2023-07-13T13:00:50;95549.25;;;22.20;100.00
23339;BME280;11841;49.368;20.962;2023-07-13T13:03:38;95556.63;;;22.15;100.00
23339;BME280;11841;49.368;20.962;2023-07-13T13:06:27;95567.19;;;22.11;99.99
23339;BME280;11841;49.368;20.962;2023-07-13T13:09:15;95578.97;;;22.02;96.35
23339;BME280;11841;49.368;20.962;2023-07-13T13:12:01;95576.34;;;21.97;96.36
23339;BME280;11841;49.368;20.962;2023-07-13T13:14:46;95588.25;;;21.96;95.83
23339;BME280;11841;49.368;20.962;2023-07-13T13:17:34;95585.09;;;21.89;96.30
23339;BME280;11841;49.368;20.962;2023-07-13T13:20:21;95595.38;;;21.87;96.56
23339;BME280;11841;49.368;20.962;2023-07-13T13:23:14;95603.53;;;21.82;96.49
23339;BME280;11841;49.368;20.962;2023-07-13T13:26:03;95602.06;;;21.66;95.45
23339;BME280;11841;49.368;20.962;2023-07-13T13:28:50;95590.38;;;21.51;97.11
23339;BME280;11841;49.368;20.962;2023-07-13T13:31:35;95595.31;;;21.44;97.55
23339;BME280;11841;49.368;20.962;2023-07-13T13:34:22;95589.47;;;21.37;96.87
23339;BME280;11841;49.368;20.962;2023-07-13T13:37:22;95583.03;;;21.33;96.60
23339;BME280;11841;49.368;20.962;2023-07-13T13:40:19;95586.81;;;21.32;96.93
23339;BME280;11841;49.368;20.962;2023-07-13T13:43:14;95592.75;;;21.34;98.08
23339;BME280;11841;49.368;20.962;2023-07-13T13:46:00;95586.06;;;21.27;98.36
23339;BME280;11841;49.368;20.962;2023-07-13T13:48:46;95571.00;;;21.26;98.27
23339;BME280;11841;49.368;20.962;2023-07-13T13:51:32;95590.16;;;21.24;98.12
23339;BME280;11841;49.368;20.962;2023-07-13T13:54:18;95590.41;;;21.23;98.28
23339;BME280;11841;49.368;20.962;2023-07-13T13:57:05;95592.31;;;21.22;98.45
23339;BME280;11841;49.368;20.962;2023-07-13T13:59:53;95584.28;;;21.17;98.43
23339;BME280;11841;49.368;20.962;2023-07-13T14:02:38;95588.53;;;21.23;97.97
23339;BME280;11841;49.368;20.962;2023-07-13T14:05:25;95578.78;;;21.27;97.60
23339;BME280;11841;49.368;20.962;2023-07-13T14:08:16;95569.66;;;21.23;97.34
23339;BME280;11841;49.368;20.962;2023-07-13T14:11:02;95580.38;;;21.28;97.45
23339;BME280;11841;49.368;20.962;2023-07-13T14:13:50;95575.09;;;21.18;95.69
23339;BME280;11841;49.368;20.962;2023-07-13T14:16:35;95579.84;;;21.03;96.95
23339;BME280;11841;49.368;20.962;2023-07-13T14:19:21;95586.69;;;20.90;96.74
23339;BME280;11841;49.368;20.962;2023-07-13T14:22:07;95579.47;;;20.81;97.64
23339;BME280;11841;49.368;20.962;2023-07-13T14:24:55;95584.63;;;20.77;97.18
23339;BME280;11841;49.368;20.962;2023-07-13T14:27:44;95570.44;;;20.72;96.46
23339;BME280;11841;49.368;20.962;2023-07-13T14:30:29;95549.59;;;20.77;96.11
23339;BME280;11841;49.368;20.962;2023-07-13T14:33:15;95569.03;;;20.74;95.63
23339;BME280;11841;49.368;20.962;2023-07-13T14:36:00;95583.94;;;20.67;96.18
23339;BME280;11841;49.368;20.962;2023-07-13T14:38:45;95590.97;;;20.63;97.02
23339;BME280;11841;49.368;20.962;2023-07-13T14:41:30;95589.13;;;20.58;97.51
23339;BME280;11841;49.368;20.962;2023-07-13T14:44:20;95592.88;;;20.57;96.75
23339;BME280;11841;49.368;20.962;2023-07-13T14:47:08;95600.97;;;20.57;96.61
23339;BME280;11841;49.368;20.962;2023-07-13T14:49:54;95609.63;;;20.54;96.92
23339;BME280;11841;49.368;20.962;2023-07-13T14:52:39;95608.53;;;20.55;97.39